createdAt,value
2023-05-02T00:03:37.233Z,100.00
2023-05-02T00:07:40.083Z,100.00
2023-05-02T00:11:42.816Z,100.00
2023-05-02T00:15:45.986Z,100.00
2023-05-02T00:19:50.036Z,100.00
2023-05-02T00:23:52.850Z,100.00
2023-05-02T00:27:56.164Z,100.00
2023-05-02T00:31:58.884Z,100.00
2023-05-02T00:36:02.902Z,100.00
2023-05-02T00:40:06.464Z,100.00
2023-05-02T00:44:09.369Z,100.00
2023-05-02T00:48:12.650Z,100.00
2023-05-02T00:52:17.030Z,100.00
2023-05-02T00:56:19.702Z,100.00
2023-05-02T01:00:28.413Z,100.00
2023-05-02T01:04:40.677Z,100.00
2023-05-02T01:08:50.758Z,100.00
2023-05-02T01:13:00.938Z,100.00
2023-05-02T01:17:06.253Z,100.00
2023-05-02T01:21:11.235Z,100.00
2023-05-02T01:25:30.965Z,100.00
2023-05-02T01:29:38.245Z,100.00
2023-05-02T01:33:41.625Z,100.00
2023-05-02T01:37:46.529Z,100.00
2023-05-02T01:41:53.293Z,100.00
2023-05-02T01:45:59.075Z,100.00
2023-05-02T01:50:04.308Z,100.00
2023-05-02T01:54:09.519Z,100.00
2023-05-02T01:58:13.106Z,100.00
2023-05-02T02:02:18.698Z,100.00
2023-05-02T02:06:22.728Z,100.00
2023-05-02T02:10:30.643Z,100.00
2023-05-02T02:14:36.148Z,100.00
2023-05-02T02:18:40.592Z,100.00
2023-05-02T02:22:45.286Z,100.00
2023-05-02T02:26:48.030Z,100.00
2023-05-02T02:30:51.200Z,100.00
2023-05-02T02:34:55.426Z,100.00
2023-05-02T02:39:11.523Z,100.00
2023-05-02T02:43:20.350Z,100.00
2023-05-02T02:47:28.382Z,100.00
2023-05-02T02:51:39.405Z,100.00
2023-05-02T02:55:48.827Z,100.00
2023-05-02T03:00:01.122Z,100.00
2023-05-02T03:04:06.876Z,100.00
2023-05-02T03:08:11.076Z,100.00
2023-05-02T03:12:14.190Z,100.00
2023-05-02T03:16:37.402Z,100.00
2023-05-02T03:20:42.922Z,100.00
2023-05-02T03:24:47.459Z,100.00
2023-05-02T03:28:51.418Z,100.00
2023-05-02T03:33:00.421Z,100.00
2023-05-02T03:37:03.202Z,100.00
2023-05-02T03:41:08.633Z,100.00
2023-05-02T03:45:12.070Z,100.00
2023-05-02T03:49:14.839Z,100.00
2023-05-02T03:53:20.396Z,100.00
2023-05-02T03:57:32.267Z,100.00
2023-05-02T04:01:35.616Z,100.00
2023-05-02T04:05:38.732Z,100.00
2023-05-02T04:09:41.963Z,100.00
2023-05-02T04:13:48.387Z,100.00
2023-05-02T04:17:51.101Z,100.00
2023-05-02T04:21:54.895Z,100.00
2023-05-02T04:25:57.773Z,100.00
2023-05-02T04:30:14.636Z,100.00
2023-05-02T04:34:21.818Z,100.00
2023-05-02T04:38:25.215Z,100.00
2023-05-02T04:42:28.174Z,100.00
2023-05-02T04:46:49.100Z,100.00
2023-05-02T04:50:53.522Z,100.00
2023-05-02T04:54:57.123Z,100.00
2023-05-02T04:59:00.816Z,100.00
2023-05-02T05:03:06.398Z,100.00
2023-05-02T05:07:09.580Z,100.00
2023-05-02T05:11:12.519Z,100.00
2023-05-02T05:15:15.702Z,100.00
2023-05-02T05:19:23.831Z,100.00
2023-05-02T05:23:27.259Z,100.00
2023-05-02T05:27:30.474Z,100.00
2023-05-02T05:31:33.676Z,100.00
2023-05-02T05:35:38.703Z,100.00
2023-05-02T05:39:41.526Z,100.00
2023-05-02T05:43:45.154Z,100.00
2023-05-02T05:47:48.553Z,100.00
2023-05-02T05:51:52.923Z,100.00
2023-05-02T05:55:55.663Z,100.00
2023-05-02T05:59:58.872Z,100.00
2023-05-02T06:04:02.958Z,100.00
2023-05-02T06:08:07.390Z,100.00
2023-05-02T06:12:10.126Z,100.00
2023-05-02T06:16:14.323Z,100.00
2023-05-02T06:20:18.710Z,100.00
2023-05-02T06:24:23.054Z,100.00
2023-05-02T06:28:25.698Z,100.00
2023-05-02T06:32:31.484Z,100.00
2023-05-02T06:36:34.235Z,100.00
2023-05-02T06:40:45.116Z,100.00
2023-05-02T06:44:47.761Z,100.00
2023-05-02T06:48:50.682Z,100.00
2023-05-02T06:52:53.536Z,100.00
2023-05-02T06:56:57.584Z,100.00
2023-05-02T07:01:00.281Z,100.00
2023-05-02T07:05:03.117Z,100.00
2023-05-02T07:09:10.802Z,100.00
2023-05-02T07:13:14.869Z,100.00
2023-05-02T07:17:17.704Z,100.00
2023-05-02T07:21:20.447Z,100.00
2023-05-02T07:25:23.087Z,99.42
2023-05-02T07:29:27.197Z,96.68
2023-05-02T07:33:30.238Z,95.27
2023-05-02T07:37:35.204Z,92.10
2023-05-02T07:41:37.923Z,91.55
2023-05-02T07:45:41.998Z,91.41
2023-05-02T07:49:44.840Z,89.46
2023-05-02T07:53:47.686Z,84.09
2023-05-02T07:57:50.418Z,80.63
2023-05-02T08:01:54.451Z,77.60
2023-05-02T08:05:57.227Z,73.69
2023-05-02T08:10:00.171Z,73.53
2023-05-02T08:14:03.347Z,68.44
2023-05-02T08:18:07.437Z,67.75
2023-05-02T08:22:10.306Z,67.55
2023-05-02T08:26:12.989Z,63.32
2023-05-02T08:30:15.797Z,60.41
2023-05-02T08:34:19.763Z,60.83
2023-05-02T08:38:22.481Z,59.92
2023-05-02T08:42:25.823Z,60.99
2023-05-02T08:46:29.961Z,59.81
2023-05-02T08:50:36.756Z,57.56
2023-05-02T08:54:39.890Z,55.76
2023-05-02T08:58:42.885Z,55.53
2023-05-02T09:02:59.079Z,53.81
2023-05-02T09:07:03.921Z,53.64
2023-05-02T09:11:07.924Z,51.81
2023-05-02T09:15:12.326Z,52.38
2023-05-02T09:19:25.984Z,51.34
2023-05-02T09:23:38.397Z,51.30
2023-05-02T09:27:52.054Z,51.30
2023-05-02T09:31:56.652Z,50.31
2023-05-02T09:35:59.495Z,51.71
2023-05-02T09:40:11.073Z,51.23
2023-05-02T09:44:15.556Z,49.96
2023-05-02T09:48:18.232Z,51.16
2023-05-02T09:52:22.490Z,51.72
2023-05-02T09:56:26.766Z,51.53
2023-05-02T10:00:43.484Z,52.36
2023-05-02T10:04:48.161Z,52.16
2023-05-02T10:08:51.045Z,52.39
2023-05-02T10:12:56.189Z,52.71
2023-05-02T10:17:02.761Z,53.55
2023-05-02T10:21:10.087Z,53.61
2023-05-02T10:25:13.490Z,52.39
2023-05-02T10:29:17.745Z,52.33
2023-05-02T10:33:22.201Z,51.89
2023-05-02T10:37:26.547Z,51.40
2023-05-02T10:41:33.041Z,50.71
2023-05-02T10:45:38.601Z,51.59
2023-05-02T10:49:50.954Z,51.10
2023-05-02T10:53:53.796Z,52.61
2023-05-02T10:58:21.960Z,52.35
2023-05-02T11:02:50.180Z,52.06
2023-05-02T11:07:18.159Z,50.63
2023-05-02T11:11:41.367Z,49.12
2023-05-02T11:15:57.739Z,48.86
2023-05-02T11:20:26.932Z,48.10
2023-05-02T11:24:39.828Z,48.13
2023-05-02T11:28:47.882Z,48.85
2023-05-02T12:38:10.313Z,43.59
2023-05-02T12:42:13.953Z,44.49
2023-05-02T12:46:17.240Z,43.40
2023-05-02T12:50:19.951Z,43.82
2023-05-02T12:54:24.394Z,42.48
2023-05-02T12:58:28.512Z,42.56
2023-05-02T13:02:31.945Z,43.05
2023-05-02T13:06:37.647Z,39.91
2023-05-02T13:10:41.879Z,41.09
2023-05-02T13:14:45.103Z,40.57
2023-05-02T13:18:48.065Z,39.63
2023-05-02T13:22:51.086Z,39.80
2023-05-02T13:26:55.621Z,40.35
2023-05-02T13:30:58.286Z,39.69
2023-05-02T13:35:01.313Z,39.83
2023-05-02T13:39:04.390Z,40.40
2023-05-02T13:43:08.512Z,40.17
2023-05-02T13:47:11.190Z,40.50
2023-05-02T13:51:13.891Z,39.02
2023-05-02T13:55:16.997Z,38.94
2023-05-02T13:59:21.000Z,39.86
2023-05-02T14:03:23.704Z,39.34
2023-05-02T14:07:26.442Z,39.08
2023-05-02T14:11:29.089Z,38.21
2023-05-02T14:15:33.161Z,38.99
2023-05-02T14:19:35.892Z,39.78
2023-05-02T14:23:38.587Z,39.65
2023-05-02T14:27:41.915Z,40.50
2023-05-02T14:31:46.563Z,40.68
2023-05-02T14:35:49.823Z,41.28
2023-05-02T14:39:56.061Z,40.75
2023-05-02T14:43:58.930Z,40.82
2023-05-02T14:48:03.018Z,41.00
2023-05-02T14:52:05.850Z,40.69
2023-05-02T14:56:13.447Z,41.32
2023-05-02T15:00:17.385Z,41.16
2023-05-02T15:04:21.477Z,40.71
2023-05-02T15:08:25.129Z,40.86
2023-05-02T15:12:27.812Z,41.36
2023-05-02T15:16:30.842Z,41.62
2023-05-02T15:20:34.861Z,41.67
2023-05-02T15:24:37.707Z,41.51
2023-05-02T15:28:40.640Z,41.22
2023-05-02T15:32:43.269Z,41.70
2023-05-02T15:36:47.270Z,41.98
2023-05-02T15:40:57.015Z,41.62
2023-05-02T15:44:59.982Z,41.75
2023-05-02T15:49:02.657Z,42.76
2023-05-02T15:53:06.741Z,42.69
2023-05-02T15:57:10.197Z,43.46
2023-05-02T16:01:12.956Z,44.11
2023-05-02T16:05:15.688Z,44.83
2023-05-02T16:09:20.907Z,45.32
2023-05-02T16:13:23.544Z,44.45
2023-05-02T16:17:26.365Z,44.74
2023-05-02T16:21:29.348Z,44.47
2023-05-02T16:25:33.378Z,44.85
2023-05-02T16:29:36.098Z,43.81
2023-05-02T16:33:39.023Z,44.53
2023-05-02T16:37:42.905Z,45.59
2023-05-02T16:41:47.080Z,45.99
2023-05-02T16:45:49.697Z,47.32
2023-05-02T16:49:55.589Z,47.33
2023-05-02T16:53:58.289Z,47.00
2023-05-02T16:58:02.234Z,47.75
2023-05-02T17:02:04.927Z,47.65
2023-05-02T17:06:08.162Z,46.85
2023-05-02T17:10:12.333Z,47.00
2023-05-02T17:14:16.389Z,47.33
2023-05-02T17:18:19.198Z,47.26
2023-05-02T17:22:21.911Z,47.93
2023-05-02T17:26:24.852Z,48.95
2023-05-02T17:30:29.029Z,49.59
2023-05-02T17:34:33.380Z,50.10
2023-05-02T17:38:36.088Z,49.92
2023-05-02T17:42:45.409Z,49.34
2023-05-02T17:46:49.769Z,48.13
2023-05-02T17:50:53.323Z,48.80
2023-05-02T17:54:56.040Z,48.77
2023-05-02T17:58:59.607Z,49.18
2023-05-02T18:03:03.753Z,50.03
2023-05-02T18:07:06.571Z,50.78
2023-05-02T18:11:14.825Z,51.69
2023-05-02T18:15:17.625Z,51.30
2023-05-02T18:19:22.901Z,51.56
2023-05-02T18:23:25.585Z,51.93
2023-05-02T18:27:28.482Z,51.87
2023-05-02T18:31:31.971Z,52.21
2023-05-02T18:35:36.453Z,52.19
2023-05-02T18:39:39.191Z,52.22
2023-05-02T18:43:41.834Z,50.47
2023-05-02T18:47:44.534Z,50.20
2023-05-02T18:51:48.591Z,49.60
2023-05-02T18:55:51.457Z,50.00
2023-05-02T18:59:54.151Z,50.53
2023-05-02T19:03:57.374Z,50.94
2023-05-02T19:08:01.505Z,51.45
2023-05-02T19:12:04.221Z,51.76
2023-05-02T19:16:11.374Z,52.08
2023-05-02T19:20:14.121Z,52.35
2023-05-02T19:24:18.448Z,52.63
2023-05-02T19:28:21.650Z,53.13
2023-05-02T19:32:25.132Z,53.39
2023-05-02T19:36:28.376Z,54.06
2023-05-02T19:40:32.448Z,54.98
2023-05-02T19:44:35.135Z,55.41
2023-05-02T19:48:37.916Z,55.89
2023-05-02T19:52:41.600Z,56.34
2023-05-02T19:56:48.646Z,57.42
2023-05-02T20:00:51.761Z,57.90
2023-05-02T20:04:54.854Z,58.77
2023-05-02T20:08:57.525Z,59.31
2023-05-02T20:13:01.535Z,59.71
2023-05-02T20:17:04.623Z,60.15
2023-05-02T20:21:07.389Z,60.29
2023-05-02T20:25:11.492Z,60.53
2023-05-02T20:29:15.557Z,60.91
2023-05-02T20:33:19.708Z,60.88
2023-05-02T20:37:22.990Z,61.07
2023-05-02T20:41:26.716Z,61.37
2023-05-02T20:45:30.687Z,61.46
2023-05-02T20:49:33.974Z,61.95
2023-05-02T20:53:36.837Z,62.42
2023-05-02T20:57:41.277Z,62.14
2023-05-02T21:01:45.296Z,62.73
2023-05-02T21:05:53.746Z,62.95
2023-05-02T21:09:56.389Z,62.93
2023-05-02T21:14:00.063Z,63.21
2023-05-02T21:18:04.862Z,63.49
2023-05-02T21:22:07.621Z,63.30
2023-05-02T21:26:10.451Z,64.29
2023-05-02T21:30:14.216Z,64.40
2023-05-02T21:34:18.813Z,64.84
2023-05-02T21:38:21.606Z,64.56
2023-05-02T21:42:24.382Z,64.82
2023-05-02T21:46:27.170Z,65.53
2023-05-02T21:50:31.285Z,65.90
2023-05-02T21:54:34.470Z,66.91
2023-05-02T21:58:37.248Z,67.33
2023-05-02T22:02:39.933Z,67.55
2023-05-02T22:06:44.112Z,67.59
2023-05-02T22:10:46.848Z,67.85
2023-05-02T22:14:49.981Z,68.48
2023-05-02T22:18:52.658Z,68.92
2023-05-02T22:22:56.695Z,68.57
2023-05-02T22:26:59.383Z,68.67
2023-05-02T22:31:01.988Z,69.03
2023-05-02T22:35:04.859Z,69.30
2023-05-02T22:39:12.835Z,69.84
2023-05-02T22:43:15.836Z,69.62
2023-05-02T22:47:18.701Z,69.99
2023-05-02T22:51:21.371Z,70.03
2023-05-02T22:55:25.774Z,70.21
2023-05-02T22:59:29.580Z,70.57
2023-05-02T23:03:32.431Z,70.99
2023-05-02T23:07:35.172Z,71.37
2023-05-02T23:11:39.160Z,71.60
2023-05-02T23:15:42.044Z,72.47
2023-05-02T23:19:44.738Z,72.39
2023-05-02T23:23:47.338Z,73.10
2023-05-02T23:27:51.713Z,74.39
2023-05-02T23:31:55.432Z,75.30
2023-05-02T23:35:58.678Z,76.12
2023-05-02T23:40:02.655Z,76.56
2023-05-02T23:44:07.009Z,77.24
2023-05-02T23:48:09.783Z,76.87
2023-05-02T23:52:12.470Z,77.03
2023-05-02T23:56:15.276Z,77.61
